MSC Vigo — A8ZV8 — position and weather

sailwx.info

Track history (hours):
 
Tides and Currents Weather Stations Pressure Air Temp Water Temp Dewpoint Dewpoint Depression Visibility Wind Speed Wind Dir Waves Ship Positions

MSC Vigo

Last reported at 2015-Sep-03 08:33 UTC. Time now 2015-Sep-03 08:58 UTC.
Position N 38°20' E 014°27'.

Length 270 m; draft 12.2 m.

Type: Ship (hazmat cat A). MMSI: 636092276.

Date/timePositionNaut miles runAvg speedWind from/ knotsBaromVisibWave heightAir tempDewpointWater temp
2015-Sep-03 08:33N 38°20' E 014°27'1613.7
2015-Sep-03 07:21N 38°21' E 014°07'1313.5
2015-Sep-03 06:24N 38°22' E 013°50'1113.5
2015-Sep-03 05:33N 38°23' E 013°36'1413.6
2015-Sep-03 04:33N 38°23' E 013°18'1413.6
2015-Sep-03 03:33N 38°25' E 013°01'1413.9
2015-Sep-03 02:33N 38°25' E 012°43'1413.9
2015-Sep-03 01:33N 38°26' E 012°26'5813.7
2015-Sep-02 21:21N 38°31' E 011°12'1113.8
2015-Sep-02 20:33N 38°32' E 010°59'1413.8
2015-Sep-02 19:33N 38°32' E 010°41'1414.0
2015-Sep-02 18:33N 38°33' E 010°23'1413.8
2015-Sep-02 17:33N 38°34' E 010°05'1413.8
2015-Sep-02 16:33N 38°35' E 009°48'1413.9
2015-Sep-02 15:33N 38°36' E 009°30'1714.0
2015-Sep-02 14:23N 38°37' E 009°09'3214.0
2015-Sep-02 12:06N 38°40' E 008°28'713.7
2015-Sep-02 11:33N 38°40' E 008°19'19414.6
2015-Sep-01 22:15N 38°54' E 004°10'1014.5
2015-Sep-01 21:33N 38°55' E 003°58'1514.6
2015-Sep-01 20:33N 38°57' E 003°39'1514.6
2015-Sep-01 19:33N 38°58' E 003°20'1514.6
2015-Sep-01 18:33N 39°00' E 003°02'1514.6
2015-Sep-01 17:33N 39°03' E 002°43'1414.5
2015-Sep-01 16:33N 39°05' E 002°25'1514.8
2015-Sep-01 15:33N 39°08' E 002°06'1414.5
2015-Sep-01 14:33N 39°11' E 001°48'1514.6
2015-Sep-01 13:33N 39°13' E 001°29'1514.6
2015-Sep-01 12:33N 39°16' E 001°11'1414.4
2015-Sep-01 11:33N 39°19' E 000°52'1414.4
2015-Sep-01 10:33N 39°21' E 000°34'3315.0
2015-Sep-01 08:23N 39°25' W 000°08'910.5
2015-Sep-01 07:33N 39°26' W 000°19'0 0.3
2015-Sep-01 06:28N 39°26' W 000°20'0 0.0
2015-Sep-01 05:25N 39°26' W 000°20'0 0.0
2015-Sep-01 04:31N 39°26' W 000°20'0 0.0
2015-Sep-01 03:34N 39°26' W 000°20'0 0.0
2015-Sep-01 02:31N 39°26' W 000°20'0 0.0
2015-Sep-01 01:34N 39°26' W 000°20'0 0.0
2015-Sep-01 00:31N 39°26' W 000°20'0 0.0
2015-Aug-31 23:34N 39°26' W 000°20'0 0.0
2015-Aug-31 22:33N 39°26' W 000°20'0 0.0
2015-Aug-31 21:30N 39°26' W 000°20'0 0.0
2015-Aug-31 20:33N 39°26' W 000°20'0 0.0
2015-Aug-31 19:31N 39°26' W 000°20'0 0.0
2015-Aug-31 18:33N 39°26' W 000°20'0 0.0
2015-Aug-31 17:33N 39°26' W 000°20'0 0.0
2015-Aug-31 16:30N 39°26' W 000°20'0 0.0
2015-Aug-31 15:33N 39°26' W 000°20'0 0.0
2015-Aug-31 14:33N 39°26' W 000°20'0 0.0
2015-Aug-31 13:33N 39°26' W 000°20'0 0.0
2015-Aug-31 12:33N 39°26' W 000°20'0 0.0
2015-Aug-31 11:33N 39°26' W 000°20'0 0.0
2015-Aug-31 10:33N 39°26' W 000°19'7512.6
2015-Aug-31 04:33N 38°13' E 000°05'1716.8
2015-Aug-31 03:33N 37°60' W 000°08'1716.6
2015-Aug-31 02:33N 37°46' W 000°19'1616.5
2015-Aug-31 01:33N 37°33' W 000°32'1716.6
2015-Aug-31 00:33N 37°21' W 000°46'1716.9
2015-Aug-30 23:33N 37°10' W 001°03'3416.8
2015-Aug-30 21:33N 36°47' W 001°33'1716.8
2015-Aug-30 20:33N 36°36' W 001°49'1515.5
2015-Aug-30 19:33N 36°26' W 002°04'1514.8
2015-Aug-30 18:33N 36°21' W 002°21'376 9.6
2015-Aug-29 03:31N 33°22' W 009°04'1717.4
2015-Aug-29 02:33N 33°10' W 009°18'2217.0
2015-Aug-29 01:16N 32°54' W 009°35'2916.9
2015-Aug-28 23:33N 32°30' W 009°56'1717.0
2015-Aug-28 22:31N 32°16' W 010°08'1716.7
2015-Aug-28 21:30N 32°03' W 010°20'1616.8
2015-Aug-28 20:33N 31°50' W 010°31'1716.6
2015-Aug-28 19:33N 31°36' W 010°43'3916.6
2015-Aug-28 17:11N 31°05' W 011°10'30817.9
2015-Aug-28 00:00N 26°48' W 014°24'   040 / 141017.510.8 2.023.519.9
Track history (hours):
 
Tides and Currents Weather Stations Pressure Air Temp Water Temp Dewpoint Dewpoint Depression Visibility Wind Speed Wind Dir Waves Ship Positions

MSC Vigo

Last reported at 2015-Sep-03 08:33 UTC. Time now 2015-Sep-03 08:58 UTC.
Position N 38°20' E 014°27'.

Length 270 m; draft 12.2 m.

Type: Ship (hazmat cat A). MMSI: 636092276.

Date/timePositionNaut miles runAvg speedWind from/ knotsBaromVisibWave heightAir tempDewpointWater temp
2015-Sep-03 08:33N 38°20' E 014°27'1613.7
2015-Sep-03 07:21N 38°21' E 014°07'1313.5
2015-Sep-03 06:24N 38°22' E 013°50'1113.5
2015-Sep-03 05:33N 38°23' E 013°36'1413.6
2015-Sep-03 04:33N 38°23' E 013°18'1413.6
2015-Sep-03 03:33N 38°25' E 013°01'1413.9
2015-Sep-03 02:33N 38°25' E 012°43'1413.9
2015-Sep-03 01:33N 38°26' E 012°26'5813.7
2015-Sep-02 21:21N 38°31' E 011°12'1113.8
2015-Sep-02 20:33N 38°32' E 010°59'1413.8
2015-Sep-02 19:33N 38°32' E 010°41'1414.0
2015-Sep-02 18:33N 38°33' E 010°23'1413.8
2015-Sep-02 17:33N 38°34' E 010°05'1413.8
2015-Sep-02 16:33N 38°35' E 009°48'1413.9
2015-Sep-02 15:33N 38°36' E 009°30'1714.0
2015-Sep-02 14:23N 38°37' E 009°09'3214.0
2015-Sep-02 12:06N 38°40' E 008°28'713.7
2015-Sep-02 11:33N 38°40' E 008°19'19414.6
2015-Sep-01 22:15N 38°54' E 004°10'1014.5
2015-Sep-01 21:33N 38°55' E 003°58'1514.6
2015-Sep-01 20:33N 38°57' E 003°39'1514.6
2015-Sep-01 19:33N 38°58' E 003°20'1514.6
2015-Sep-01 18:33N 39°00' E 003°02'1514.6
2015-Sep-01 17:33N 39°03' E 002°43'1414.5
2015-Sep-01 16:33N 39°05' E 002°25'1514.8
2015-Sep-01 15:33N 39°08' E 002°06'1414.5
2015-Sep-01 14:33N 39°11' E 001°48'1514.6
2015-Sep-01 13:33N 39°13' E 001°29'1514.6
2015-Sep-01 12:33N 39°16' E 001°11'1414.4
2015-Sep-01 11:33N 39°19' E 000°52'1414.4
2015-Sep-01 10:33N 39°21' E 000°34'3315.0
2015-Sep-01 08:23N 39°25' W 000°08'910.5
2015-Sep-01 07:33N 39°26' W 000°19'0 0.3
2015-Sep-01 06:28N 39°26' W 000°20'0 0.0
2015-Sep-01 05:25N 39°26' W 000°20'0 0.0
2015-Sep-01 04:31N 39°26' W 000°20'0 0.0
2015-Sep-01 03:34N 39°26' W 000°20'0 0.0
2015-Sep-01 02:31N 39°26' W 000°20'0 0.0
2015-Sep-01 01:34N 39°26' W 000°20'0 0.0
2015-Sep-01 00:31N 39°26' W 000°20'0 0.0
2015-Aug-31 23:34N 39°26' W 000°20'0 0.0
2015-Aug-31 22:33N 39°26' W 000°20'0 0.0
2015-Aug-31 21:30N 39°26' W 000°20'0 0.0
2015-Aug-31 20:33N 39°26' W 000°20'0 0.0
2015-Aug-31 19:31N 39°26' W 000°20'0 0.0
2015-Aug-31 18:33N 39°26' W 000°20'0 0.0
2015-Aug-31 17:33N 39°26' W 000°20'0 0.0
2015-Aug-31 16:30N 39°26' W 000°20'0 0.0
2015-Aug-31 15:33N 39°26' W 000°20'0 0.0
2015-Aug-31 14:33N 39°26' W 000°20'0 0.0
2015-Aug-31 13:33N 39°26' W 000°20'0 0.0
2015-Aug-31 12:33N 39°26' W 000°20'0 0.0
2015-Aug-31 11:33N 39°26' W 000°20'0 0.0
2015-Aug-31 10:33N 39°26' W 000°19'7512.6
2015-Aug-31 04:33N 38°13' E 000°05'1716.8
2015-Aug-31 03:33N 37°60' W 000°08'1716.6
2015-Aug-31 02:33N 37°46' W 000°19'1616.5
2015-Aug-31 01:33N 37°33' W 000°32'1716.6
2015-Aug-31 00:33N 37°21' W 000°46'1716.9
2015-Aug-30 23:33N 37°10' W 001°03'3416.8
2015-Aug-30 21:33N 36°47' W 001°33'1716.8
2015-Aug-30 20:33N 36°36' W 001°49'1515.5
2015-Aug-30 19:33N 36°26' W 002°04'1514.8
2015-Aug-30 18:33N 36°21' W 002°21'376 9.6
2015-Aug-29 03:31N 33°22' W 009°04'1717.4
2015-Aug-29 02:33N 33°10' W 009°18'2217.0
2015-Aug-29 01:16N 32°54' W 009°35'2916.9
2015-Aug-28 23:33N 32°30' W 009°56'1717.0
2015-Aug-28 22:31N 32°16' W 010°08'1716.7
2015-Aug-28 21:30N 32°03' W 010°20'1616.8
2015-Aug-28 20:33N 31°50' W 010°31'1716.6
2015-Aug-28 19:33N 31°36' W 010°43'3916.6
2015-Aug-28 17:11N 31°05' W 011°10'30817.9
2015-Aug-28 00:00N 26°48' W 014°24'   040 / 141017.510.8 2.023.519.9

Dump ship's entire track history